Terminal Aerodrome Forecast
Issued by NWS

Home | Current Version | Previous Version | Text Only | Print | Product List | Glossary On
Versions: 1 2 3 4 5 6 7 8 9 10 11 12 13 14 15 16 17 18 19 20
685
FTAK31 PAJN 251130
TAFASI
TAF
PASI 251130Z 2512/2612 VRB03KT P6SM BCFG SCT005 BKN050
      TEMPO 2512/2515 FEW009 BKN025
     FM252200 27005KT P6SM SCT025 SCT040
     FM260400 12010KT P6SM VCSH SCT020 BKN040 OVC060
     FM260900 12010KT P6SM -RA SCT015 BKN030 OVC060=

USA.gov is the U.S. government's official web portal to all federal, state and local government web resources and services.